sensor_id;sensor_type;location;lat;lon;timestamp;P1;durP1;ratioP1;P2;durP2;ratioP2
74213;SDS011;62576;55.694;37.494;2023-11-19T00:00:24;17.17;;;6.65;;
74213;SDS011;62576;55.694;37.494;2023-11-19T00:02:54;18.55;;;7.38;;
74213;SDS011;62576;55.694;37.494;2023-11-19T00:05:24;22.50;;;7.38;;
74213;SDS011;62576;55.694;37.494;2023-11-19T00:07:55;19.95;;;7.13;;
74213;SDS011;62576;55.694;37.494;2023-11-19T00:10:27;21.25;;;6.88;;
74213;SDS011;62576;55.694;37.494;2023-11-19T00:12:57;22.00;;;7.90;;
74213;SDS011;62576;55.694;37.494;2023-11-19T00:15:28;17.08;;;7.13;;
74213;SDS011;62576;55.694;37.494;2023-11-19T00:17:58;19.92;;;7.22;;
74213;SDS011;62576;55.694;37.494;2023-11-19T00:20:35;24.90;;;8.10;;
74213;SDS011;62576;55.694;37.494;2023-11-19T00:25:39;21.90;;;7.43;;
74213;SDS011;62576;55.694;37.494;2023-11-19T00:28:11;21.98;;;7.00;;
74213;SDS011;62576;55.694;37.494;2023-11-19T00:30:41;23.45;;;7.30;;
74213;SDS011;62576;55.694;37.494;2023-11-19T00:33:11;18.08;;;7.25;;
74213;SDS011;62576;55.694;37.494;2023-11-19T00:35:41;20.25;;;6.75;;
74213;SDS011;62576;55.694;37.494;2023-11-19T00:38:11;19.83;;;6.82;;
74213;SDS011;62576;55.694;37.494;2023-11-19T00:40:45;18.02;;;6.82;;
74213;SDS011;62576;55.694;37.494;2023-11-19T00:43:35;20.80;;;7.07;;
74213;SDS011;62576;55.694;37.494;2023-11-19T00:46:07;21.52;;;7.03;;
74213;SDS011;62576;55.694;37.494;2023-11-19T00:48:38;26.20;;;7.60;;
74213;SDS011;62576;55.694;37.494;2023-11-19T00:51:08;17.98;;;6.95;;
74213;SDS011;62576;55.694;37.494;2023-11-19T00:53:39;22.90;;;7.18;;
74213;SDS011;62576;55.694;37.494;2023-11-19T00:56:12;23.08;;;7.75;;
74213;SDS011;62576;55.694;37.494;2023-11-19T00:58:51;24.95;;;8.02;;
74213;SDS011;62576;55.694;37.494;2023-11-19T01:02:13;18.80;;;7.70;;
74213;SDS011;62576;55.694;37.494;2023-11-19T01:04:43;22.92;;;8.43;;
74213;SDS011;62576;55.694;37.494;2023-11-19T01:07:13;20.73;;;7.47;;
74213;SDS011;62576;55.694;37.494;2023-11-19T01:09:43;24.85;;;7.47;;
74213;SDS011;62576;55.694;37.494;2023-11-19T01:12:14;19.98;;;7.50;;
74213;SDS011;62576;55.694;37.494;2023-11-19T01:14:44;21.42;;;7.68;;
74213;SDS011;62576;55.694;37.494;2023-11-19T01:17:14;23.48;;;7.78;;
74213;SDS011;62576;55.694;37.494;2023-11-19T01:19:44;26.65;;;9.20;;
74213;SDS011;62576;55.694;37.494;2023-11-19T01:22:14;20.90;;;7.80;;
74213;SDS011;62576;55.694;37.494;2023-11-19T01:24:45;21.63;;;7.72;;
74213;SDS011;62576;55.694;37.494;2023-11-19T01:27:16;22.92;;;8.00;;
74213;SDS011;62576;55.694;37.494;2023-11-19T01:29:47;25.60;;;8.57;;
74213;SDS011;62576;55.694;37.494;2023-11-19T01:32:17;24.90;;;7.63;;
74213;SDS011;62576;55.694;37.494;2023-11-19T01:34:47;23.58;;;8.35;;
74213;SDS011;62576;55.694;37.494;2023-11-19T01:37:17;27.00;;;9.48;;
74213;SDS011;62576;55.694;37.494;2023-11-19T01:39:47;28.00;;;11.43;;
74213;SDS011;62576;55.694;37.494;2023-11-19T01:42:19;20.45;;;7.95;;
74213;SDS011;62576;55.694;37.494;2023-11-19T01:48:03;20.10;;;8.10;;
74213;SDS011;62576;55.694;37.494;2023-11-19T01:50:30;29.35;;;8.00;;
74213;SDS011;62576;55.694;37.494;2023-11-19T01:53:01;23.23;;;8.20;;
74213;SDS011;62576;55.694;37.494;2023-11-19T01:55:31;25.35;;;8.57;;
74213;SDS011;62576;55.694;37.494;2023-11-19T01:58:02;26.83;;;8.48;;
74213;SDS011;62576;55.694;37.494;2023-11-19T02:00:33;23.88;;;8.68;;
74213;SDS011;62576;55.694;37.494;2023-11-19T02:03:03;22.92;;;8.57;;
74213;SDS011;62576;55.694;37.494;2023-11-19T02:05:35;24.13;;;8.38;;
74213;SDS011;62576;55.694;37.494;2023-11-19T02:08:06;21.48;;;8.48;;
74213;SDS011;62576;55.694;37.494;2023-11-19T02:10:37;22.55;;;8.95;;
74213;SDS011;62576;55.694;37.494;2023-11-19T02:13:09;23.42;;;8.85;;
74213;SDS011;62576;55.694;37.494;2023-11-19T02:15:40;23.45;;;8.25;;
74213;SDS011;62576;55.694;37.494;2023-11-19T02:18:19;24.40;;;8.18;;
74213;SDS011;62576;55.694;37.494;2023-11-19T02:20:50;27.88;;;8.75;;
74213;SDS011;62576;55.694;37.494;2023-11-19T02:23:20;22.67;;;8.10;;
74213;SDS011;62576;55.694;37.494;2023-11-19T02:25:59;20.73;;;7.53;;
74213;SDS011;62576;55.694;37.494;2023-11-19T02:28:31;22.90;;;8.60;;
74213;SDS011;62576;55.694;37.494;2023-11-19T02:31:02;31.42;;;9.02;;
74213;SDS011;62576;55.694;37.494;2023-11-19T02:33:36;22.33;;;8.48;;
74213;SDS011;62576;55.694;37.494;2023-11-19T02:38:36;25.10;;;8.50;;
74213;SDS011;62576;55.694;37.494;2023-11-19T02:41:07;25.40;;;8.02;;
74213;SDS011;62576;55.694;37.494;2023-11-19T02:43:39;23.80;;;7.65;;
74213;SDS011;62576;55.694;37.494;2023-11-19T02:46:09;24.02;;;7.80;;
74213;SDS011;62576;55.694;37.494;2023-11-19T02:48:39;24.10;;;9.70;;
74213;SDS011;62576;55.694;37.494;2023-11-19T02:51:09;25.20;;;8.57;;
74213;SDS011;62576;55.694;37.494;2023-11-19T02:53:39;25.48;;;7.82;;
74213;SDS011;62576;55.694;37.494;2023-11-19T02:56:09;25.58;;;7.65;;
74213;SDS011;62576;55.694;37.494;2023-11-19T02:58:49;23.10;;;8.23;;
74213;SDS011;62576;55.694;37.494;2023-11-19T03:01:22;20.98;;;7.40;;
74213;SDS011;62576;55.694;37.494;2023-11-19T03:03:57;20.95;;;7.88;;
74213;SDS011;62576;55.694;37.494;2023-11-19T03:06:29;22.67;;;8.23;;
74213;SDS011;62576;55.694;37.494;2023-11-19T03:08:59;28.08;;;7.78;;
74213;SDS011;62576;55.694;37.494;2023-11-19T03:11:34;23.25;;;8.40;;
74213;SDS011;62576;55.694;37.494;2023-11-19T03:14:06;20.13;;;8.15;;
74213;SDS011;62576;55.694;37.494;2023-11-19T03:16:36;26.40;;;8.55;;
74213;SDS011;62576;55.694;37.494;2023-11-19T03:19:06;24.65;;;8.38;;
74213;SDS011;62576;55.694;37.494;2023-11-19T03:21:36;21.80;;;8.15;;
74213;SDS011;62576;55.694;37.494;2023-11-19T03:24:08;23.67;;;7.65;;
74213;SDS011;62576;55.694;37.494;2023-11-19T03:26:39;19.83;;;8.50;;
74213;SDS011;62576;55.694;37.494;2023-11-19T03:29:12;21.88;;;7.95;;
74213;SDS011;62576;55.694;37.494;2023-11-19T03:31:42;20.98;;;8.32;;
74213;SDS011;62576;55.694;37.494;2023-11-19T03:34:13;24.35;;;8.32;;
74213;SDS011;62576;55.694;37.494;2023-11-19T03:36:44;23.77;;;8.80;;
74213;SDS011;62576;55.694;37.494;2023-11-19T03:39:14;24.17;;;8.10;;
74213;SDS011;62576;55.694;37.494;2023-11-19T03:41:45;22.08;;;7.70;;
74213;SDS011;62576;55.694;37.494;2023-11-19T03:44:18;24.00;;;9.18;;
74213;SDS011;62576;55.694;37.494;2023-11-19T03:49:19;23.33;;;7.22;;
74213;SDS011;62576;55.694;37.494;2023-11-19T03:51:50;21.75;;;7.57;;
74213;SDS011;62576;55.694;37.494;2023-11-19T03:54:21;22.98;;;8.02;;
74213;SDS011;62576;55.694;37.494;2023-11-19T03:56:53;21.08;;;7.85;;
74213;SDS011;62576;55.694;37.494;2023-11-19T03:59:26;20.15;;;7.72;;
74213;SDS011;62576;55.694;37.494;2023-11-19T04:01:56;21.15;;;8.13;;
74213;SDS011;62576;55.694;37.494;2023-11-19T04:04:29;26.08;;;8.13;;
74213;SDS011;62576;55.694;37.494;2023-11-19T04:07:02;23.50;;;7.85;;
74213;SDS011;62576;55.694;37.494;2023-11-19T04:09:33;20.17;;;8.07;;
74213;SDS011;62576;55.694;37.494;2023-11-19T04:12:04;27.98;;;8.32;;
74213;SDS011;62576;55.694;37.494;2023-11-19T04:14:35;21.85;;;8.13;;
74213;SDS011;62576;55.694;37.494;2023-11-19T04:17:05;24.80;;;9.18;;
74213;SDS011;62576;55.694;37.494;2023-11-19T04:19:35;25.70;;;7.93;;
74213;SDS011;62576;55.694;37.494;2023-11-19T04:22:06;19.13;;;7.85;;
74213;SDS011;62576;55.694;37.494;2023-11-19T04:24:35;23.83;;;8.18;;
74213;SDS011;62576;55.694;37.494;2023-11-19T04:27:05;24.33;;;8.55;;
74213;SDS011;62576;55.694;37.494;2023-11-19T04:29:39;19.42;;;7.80;;
74213;SDS011;62576;55.694;37.494;2023-11-19T04:32:09;21.95;;;7.78;;
74213;SDS011;62576;55.694;37.494;2023-11-19T04:34:38;24.75;;;7.95;;
74213;SDS011;62576;55.694;37.494;2023-11-19T04:37:08;20.23;;;7.60;;
74213;SDS011;62576;55.694;37.494;2023-11-19T04:39:38;23.60;;;7.35;;
74213;SDS011;62576;55.694;37.494;2023-11-19T04:42:07;17.00;;;6.50;;
74213;SDS011;62576;55.694;37.494;2023-11-19T04:44:39;18.65;;;6.10;;
74213;SDS011;62576;55.694;37.494;2023-11-19T04:47:08;16.77;;;6.38;;
74213;SDS011;62576;55.694;37.494;2023-11-19T04:49:39;20.67;;;7.22;;
74213;SDS011;62576;55.694;37.494;2023-11-19T04:52:11;15.82;;;6.15;;
74213;SDS011;62576;55.694;37.494;2023-11-19T04:54:41;18.92;;;7.15;;
74213;SDS011;62576;55.694;37.494;2023-11-19T04:57:11;18.67;;;6.80;;
74213;SDS011;62576;55.694;37.494;2023-11-19T04:59:42;20.33;;;7.00;;
74213;SDS011;62576;55.694;37.494;2023-11-19T05:02:13;19.02;;;7.00;;
74213;SDS011;62576;55.694;37.494;2023-11-19T05:04:44;23.13;;;8.63;;
74213;SDS011;62576;55.694;37.494;2023-11-19T05:07:14;22.35;;;8.05;;
74213;SDS011;62576;55.694;37.494;2023-11-19T05:09:47;20.42;;;7.57;;
74213;SDS011;62576;55.694;37.494;2023-11-19T05:12:16;22.40;;;7.20;;
74213;SDS011;62576;55.694;37.494;2023-11-19T05:14:48;17.90;;;6.80;;
74213;SDS011;62576;55.694;37.494;2023-11-19T05:17:19;20.63;;;7.50;;
74213;SDS011;62576;55.694;37.494;2023-11-19T05:19:48;14.80;;;6.22;;
74213;SDS011;62576;55.694;37.494;2023-11-19T05:22:18;18.80;;;6.85;;
74213;SDS011;62576;55.694;37.494;2023-11-19T05:24:48;28.83;;;7.88;;
74213;SDS011;62576;55.694;37.494;2023-11-19T05:27:18;20.60;;;8.10;;
74213;SDS011;62576;55.694;37.494;2023-11-19T05:29:49;22.98;;;8.35;;
74213;SDS011;62576;55.694;37.494;2023-11-19T05:32:19;24.92;;;9.82;;
74213;SDS011;62576;55.694;37.494;2023-11-19T05:34:49;24.15;;;9.10;;
74213;SDS011;62576;55.694;37.494;2023-11-19T05:37:16;27.50;;;9.82;;
74213;SDS011;62576;55.694;37.494;2023-11-19T05:39:46;19.10;;;8.65;;
74213;SDS011;62576;55.694;37.494;2023-11-19T05:42:16;19.52;;;7.40;;
74213;SDS011;62576;55.694;37.494;2023-11-19T05:44:46;22.08;;;8.88;;
74213;SDS011;62576;55.694;37.494;2023-11-19T05:47:17;26.13;;;8.90;;
74213;SDS011;62576;55.694;37.494;2023-11-19T05:49:44;29.48;;;9.52;;
74213;SDS011;62576;55.694;37.494;2023-11-19T05:52:13;31.60;;;9.30;;
74213;SDS011;62576;55.694;37.494;2023-11-19T05:54:43;32.33;;;10.18;;
74213;SDS011;62576;55.694;37.494;2023-11-19T05:57:13;32.15;;;10.57;;
74213;SDS011;62576;55.694;37.494;2023-11-19T05:59:46;26.17;;;9.43;;
74213;SDS011;62576;55.694;37.494;2023-11-19T06:02:18;31.25;;;9.70;;
74213;SDS011;62576;55.694;37.494;2023-11-19T06:04:48;26.02;;;8.98;;
74213;SDS011;62576;55.694;37.494;2023-11-19T06:07:17;22.27;;;8.30;;
74213;SDS011;62576;55.694;37.494;2023-11-19T06:09:48;23.48;;;8.45;;
74213;SDS011;62576;55.694;37.494;2023-11-19T06:12:20;20.15;;;8.35;;
74213;SDS011;62576;55.694;37.494;2023-11-19T06:14:50;25.48;;;10.68;;
74213;SDS011;62576;55.694;37.494;2023-11-19T06:17:21;25.35;;;9.20;;
74213;SDS011;62576;55.694;37.494;2023-11-19T06:19:54;24.30;;;9.27;;
74213;SDS011;62576;55.694;37.494;2023-11-19T06:22:24;21.33;;;8.38;;
74213;SDS011;62576;55.694;37.494;2023-11-19T06:24:53;25.38;;;9.13;;
74213;SDS011;62576;55.694;37.494;2023-11-19T06:27:23;18.60;;;7.95;;
74213;SDS011;62576;55.694;37.494;2023-11-19T06:29:53;21.25;;;8.50;;
74213;SDS011;62576;55.694;37.494;2023-11-19T06:32:24;20.73;;;8.77;;
74213;SDS011;62576;55.694;37.494;2023-11-19T06:34:54;24.38;;;9.15;;
74213;SDS011;62576;55.694;37.494;2023-11-19T06:37:24;22.25;;;9.27;;
74213;SDS011;62576;55.694;37.494;2023-11-19T06:39:55;25.60;;;8.85;;
74213;SDS011;62576;55.694;37.494;2023-11-19T06:42:25;23.58;;;9.20;;
74213;SDS011;62576;55.694;37.494;2023-11-19T06:44:54;21.77;;;8.98;;
74213;SDS011;62576;55.694;37.494;2023-11-19T06:47:27;25.98;;;8.88;;
74213;SDS011;62576;55.694;37.494;2023-11-19T06:49:54;24.85;;;9.23;;
74213;SDS011;62576;55.694;37.494;2023-11-19T06:52:24;22.63;;;9.07;;
74213;SDS011;62576;55.694;37.494;2023-11-19T06:54:54;21.38;;;8.05;;
74213;SDS011;62576;55.694;37.494;2023-11-19T06:57:26;25.17;;;9.45;;
74213;SDS011;62576;55.694;37.494;2023-11-19T06:59:58;26.60;;;8.95;;
74213;SDS011;62576;55.694;37.494;2023-11-19T07:02:30;20.40;;;8.90;;
74213;SDS011;62576;55.694;37.494;2023-11-19T07:05:01;29.58;;;9.27;;
74213;SDS011;62576;55.694;37.494;2023-11-19T07:07:32;23.65;;;8.90;;
74213;SDS011;62576;55.694;37.494;2023-11-19T07:10:02;24.08;;;9.32;;
74213;SDS011;62576;55.694;37.494;2023-11-19T07:12:33;22.98;;;9.48;;
74213;SDS011;62576;55.694;37.494;2023-11-19T07:15:04;21.08;;;7.90;;
74213;SDS011;62576;55.694;37.494;2023-11-19T07:17:35;24.98;;;9.55;;
74213;SDS011;62576;55.694;37.494;2023-11-19T07:20:05;27.88;;;9.95;;
74213;SDS011;62576;55.694;37.494;2023-11-19T07:22:36;26.35;;;9.20;;
74213;SDS011;62576;55.694;37.494;2023-11-19T07:25:07;27.90;;;9.93;;
74213;SDS011;62576;55.694;37.494;2023-11-19T07:27:36;24.63;;;9.20;;
74213;SDS011;62576;55.694;37.494;2023-11-19T07:30:06;23.02;;;8.88;;
74213;SDS011;62576;55.694;37.494;2023-11-19T07:32:38;25.23;;;9.32;;
74213;SDS011;62576;55.694;37.494;2023-11-19T07:35:08;20.92;;;9.00;;
74213;SDS011;62576;55.694;37.494;2023-11-19T07:37:38;27.05;;;9.70;;
74213;SDS011;62576;55.694;37.494;2023-11-19T07:40:08;22.50;;;9.85;;
74213;SDS011;62576;55.694;37.494;2023-11-19T07:42:39;24.02;;;9.52;;
74213;SDS011;62576;55.694;37.494;2023-11-19T07:45:09;26.73;;;10.18;;
74213;SDS011;62576;55.694;37.494;2023-11-19T07:47:43;24.65;;;9.65;;
74213;SDS011;62576;55.694;37.494;2023-11-19T07:50:12;22.67;;;9.43;;
74213;SDS011;62576;55.694;37.494;2023-11-19T07:52:45;23.30;;;9.55;;
74213;SDS011;62576;55.694;37.494;2023-11-19T07:55:18;23.45;;;8.73;;
74213;SDS011;62576;55.694;37.494;2023-11-19T07:58:00;24.77;;;10.10;;
74213;SDS011;62576;55.694;37.494;2023-11-19T08:00:29;26.35;;;9.52;;
74213;SDS011;62576;55.694;37.494;2023-11-19T08:03:01;26.65;;;9.75;;
74213;SDS011;62576;55.694;37.494;2023-11-19T08:05:30;27.85;;;10.02;;
74213;SDS011;62576;55.694;37.494;2023-11-19T08:08:00;25.80;;;10.43;;
74213;SDS011;62576;55.694;37.494;2023-11-19T08:10:30;26.67;;;9.95;;
74213;SDS011;62576;55.694;37.494;2023-11-19T08:13:01;27.58;;;9.95;;
74213;SDS011;62576;55.694;37.494;2023-11-19T08:15:31;31.88;;;11.02;;
74213;SDS011;62576;55.694;37.494;2023-11-19T08:21:06;28.05;;;10.95;;
74213;SDS011;62576;55.694;37.494;2023-11-19T08:23:36;25.30;;;10.30;;
74213;SDS011;62576;55.694;37.494;2023-11-19T08:26:06;31.05;;;10.95;;
74213;SDS011;62576;55.694;37.494;2023-11-19T08:28:39;26.70;;;10.30;;
74213;SDS011;62576;55.694;37.494;2023-11-19T08:31:09;23.08;;;10.15;;
74213;SDS011;62576;55.694;37.494;2023-11-19T08:33:39;24.58;;;10.00;;
74213;SDS011;62576;55.694;37.494;2023-11-19T08:39:10;27.60;;;10.07;;
74213;SDS011;62576;55.694;37.494;2023-11-19T08:41:41;28.07;;;10.37;;
74213;SDS011;62576;55.694;37.494;2023-11-19T08:44:11;28.27;;;10.20;;
74213;SDS011;62576;55.694;37.494;2023-11-19T08:46:46;23.73;;;10.63;;
74213;SDS011;62576;55.694;37.494;2023-11-19T08:49:15;25.60;;;9.60;;
74213;SDS011;62576;55.694;37.494;2023-11-19T08:51:45;28.42;;;9.73;;
74213;SDS011;62576;55.694;37.494;2023-11-19T08:54:17;26.75;;;9.93;;
74213;SDS011;62576;55.694;37.494;2023-11-19T08:56:48;24.27;;;9.77;;
74213;SDS011;62576;55.694;37.494;2023-11-19T09:02:19;32.67;;;10.05;;
74213;SDS011;62576;55.694;37.494;2023-11-19T09:04:49;24.27;;;9.05;;
74213;SDS011;62576;55.694;37.494;2023-11-19T09:07:20;25.85;;;9.15;;
74213;SDS011;62576;55.694;37.494;2023-11-19T09:09:51;25.40;;;9.43;;
74213;SDS011;62576;55.694;37.494;2023-11-19T09:12:21;22.63;;;9.50;;
74213;SDS011;62576;55.694;37.494;2023-11-19T09:14:51;21.92;;;9.07;;
74213;SDS011;62576;55.694;37.494;2023-11-19T09:17:21;23.20;;;9.30;;
74213;SDS011;62576;55.694;37.494;2023-11-19T09:19:51;23.45;;;8.18;;
74213;SDS011;62576;55.694;37.494;2023-11-19T09:22:21;26.33;;;9.85;;
74213;SDS011;62576;55.694;37.494;2023-11-19T09:24:54;26.45;;;10.02;;
74213;SDS011;62576;55.694;37.494;2023-11-19T09:27:24;25.17;;;9.93;;
74213;SDS011;62576;55.694;37.494;2023-11-19T09:29:54;24.77;;;9.52;;
74213;SDS011;62576;55.694;37.494;2023-11-19T09:32:26;29.00;;;10.02;;
74213;SDS011;62576;55.694;37.494;2023-11-19T09:34:58;26.75;;;9.27;;
74213;SDS011;62576;55.694;37.494;2023-11-19T09:37:28;24.10;;;10.30;;
74213;SDS011;62576;55.694;37.494;2023-11-19T09:40:00;23.77;;;8.88;;
74213;SDS011;62576;55.694;37.494;2023-11-19T09:42:30;29.58;;;10.38;;
74213;SDS011;62576;55.694;37.494;2023-11-19T09:45:01;26.27;;;10.55;;
74213;SDS011;62576;55.694;37.494;2023-11-19T09:47:32;26.70;;;9.68;;
74213;SDS011;62576;55.694;37.494;2023-11-19T09:49:59;27.13;;;10.10;;
74213;SDS011;62576;55.694;37.494;2023-11-19T09:55:37;24.88;;;9.32;;
74213;SDS011;62576;55.694;37.494;2023-11-19T09:58:07;23.65;;;8.55;;
74213;SDS011;62576;55.694;37.494;2023-11-19T10:00:37;22.30;;;8.93;;
74213;SDS011;62576;55.694;37.494;2023-11-19T10:03:07;23.48;;;9.07;;
74213;SDS011;62576;55.694;37.494;2023-11-19T10:05:37;24.15;;;8.60;;
74213;SDS011;62576;55.694;37.494;2023-11-19T10:08:10;22.15;;;8.60;;
74213;SDS011;62576;55.694;37.494;2023-11-19T10:10:42;23.05;;;8.73;;
74213;SDS011;62576;55.694;37.494;2023-11-19T10:13:11;22.70;;;9.75;;
74213;SDS011;62576;55.694;37.494;2023-11-19T10:18:45;20.40;;;7.78;;
74213;SDS011;62576;55.694;37.494;2023-11-19T10:21:17;22.13;;;8.43;;
74213;SDS011;62576;55.694;37.494;2023-11-19T10:23:50;18.33;;;8.27;;
74213;SDS011;62576;55.694;37.494;2023-11-19T10:26:22;19.27;;;8.05;;
74213;SDS011;62576;55.694;37.494;2023-11-19T10:28:52;21.48;;;8.80;;
74213;SDS011;62576;55.694;37.494;2023-11-19T10:31:22;18.67;;;7.57;;
74213;SDS011;62576;55.694;37.494;2023-11-19T10:33:53;25.77;;;8.65;;
74213;SDS011;62576;55.694;37.494;2023-11-19T10:36:23;23.48;;;8.18;;
74213;SDS011;62576;55.694;37.494;2023-11-19T10:42:16;19.40;;;7.07;;
74213;SDS011;62576;55.694;37.494;2023-11-19T10:44:46;17.35;;;6.65;;
74213;SDS011;62576;55.694;37.494;2023-11-19T10:47:16;19.48;;;8.18;;
74213;SDS011;62576;55.694;37.494;2023-11-19T10:49:48;19.48;;;7.47;;
74213;SDS011;62576;55.694;37.494;2023-11-19T10:52:19;20.80;;;7.97;;
74213;SDS011;62576;55.694;37.494;2023-11-19T10:54:49;22.90;;;7.97;;
74213;SDS011;62576;55.694;37.494;2023-11-19T10:57:21;21.85;;;7.75;;
74213;SDS011;62576;55.694;37.494;2023-11-19T10:59:51;22.52;;;7.78;;
74213;SDS011;62576;55.694;37.494;2023-11-19T11:02:22;19.20;;;7.65;;
74213;SDS011;62576;55.694;37.494;2023-11-19T11:04:54;19.13;;;7.78;;
74213;SDS011;62576;55.694;37.494;2023-11-19T11:07:24;23.77;;;7.65;;
74213;SDS011;62576;55.694;37.494;2023-11-19T11:09:54;22.85;;;7.20;;
74213;SDS011;62576;55.694;37.494;2023-11-19T11:12:26;20.27;;;7.60;;
74213;SDS011;62576;55.694;37.494;2023-11-19T11:14:57;21.35;;;8.07;;
74213;SDS011;62576;55.694;37.494;2023-11-19T11:17:27;20.88;;;7.25;;
74213;SDS011;62576;55.694;37.494;2023-11-19T11:19:57;17.33;;;7.25;;
74213;SDS011;62576;55.694;37.494;2023-11-19T11:22:28;19.27;;;6.82;;
74213;SDS011;62576;55.694;37.494;2023-11-19T11:25:06;21.23;;;7.00;;
74213;SDS011;62576;55.694;37.494;2023-11-19T11:30:53;15.35;;;6.53;;
74213;SDS011;62576;55.694;37.494;2023-11-19T11:33:30;16.42;;;6.35;;
74213;SDS011;62576;55.694;37.494;2023-11-19T11:36:06;17.17;;;6.72;;
74213;SDS011;62576;55.694;37.494;2023-11-19T11:41:36;18.90;;;6.78;;
74213;SDS011;62576;55.694;37.494;2023-11-19T11:47:11;16.23;;;6.40;;
74213;SDS011;62576;55.694;37.494;2023-11-19T11:49:41;15.30;;;6.28;;
74213;SDS011;62576;55.694;37.494;2023-11-19T11:52:11;15.82;;;6.07;;
74213;SDS011;62576;55.694;37.494;2023-11-19T11:54:50;17.27;;;6.70;;
74213;SDS011;62576;55.694;37.494;2023-11-19T12:00:26;16.00;;;6.57;;
74213;SDS011;62576;55.694;37.494;2023-11-19T12:02:59;18.63;;;6.68;;
74213;SDS011;62576;55.694;37.494;2023-11-19T12:05:30;17.23;;;6.70;;
74213;SDS011;62576;55.694;37.494;2023-11-19T12:08:03;20.88;;;7.22;;
74213;SDS011;62576;55.694;37.494;2023-11-19T12:10:37;14.98;;;5.70;;
74213;SDS011;62576;55.694;37.494;2023-11-19T12:13:07;17.13;;;6.55;;
74213;SDS011;62576;55.694;37.494;2023-11-19T12:15:48;15.68;;;6.28;;
74213;SDS011;62576;55.694;37.494;2023-11-19T12:18:38;21.63;;;6.55;;
74213;SDS011;62576;55.694;37.494;2023-11-19T12:21:11;15.70;;;6.30;;
74213;SDS011;62576;55.694;37.494;2023-11-19T12:23:45;19.42;;;6.18;;
74213;SDS011;62576;55.694;37.494;2023-11-19T12:29:05;14.30;;;6.32;;
74213;SDS011;62576;55.694;37.494;2023-11-19T12:31:36;13.25;;;5.55;;
74213;SDS011;62576;55.694;37.494;2023-11-19T12:34:08;14.40;;;6.03;;
74213;SDS011;62576;55.694;37.494;2023-11-19T12:39:48;18.17;;;5.88;;
74213;SDS011;62576;55.694;37.494;2023-11-19T12:42:18;13.48;;;5.15;;
74213;SDS011;62576;55.694;37.494;2023-11-19T12:47:33;16.02;;;5.68;;
74213;SDS011;62576;55.694;37.494;2023-11-19T12:50:01;12.20;;;5.00;;
74213;SDS011;62576;55.694;37.494;2023-11-19T12:52:32;13.68;;;5.93;;
74213;SDS011;62576;55.694;37.494;2023-11-19T12:55:24;13.82;;;5.82;;
74213;SDS011;62576;55.694;37.494;2023-11-19T12:58:10;16.98;;;6.28;;
74213;SDS011;62576;55.694;37.494;2023-11-19T13:00:40;16.73;;;5.97;;
74213;SDS011;62576;55.694;37.494;2023-11-19T13:03:09;14.73;;;5.82;;
74213;SDS011;62576;55.694;37.494;2023-11-19T13:05:42;15.80;;;6.03;;
74213;SDS011;62576;55.694;37.494;2023-11-19T13:08:09;14.25;;;6.18;;
74213;SDS011;62576;55.694;37.494;2023-11-19T13:10:49;19.65;;;6.82;;
74213;SDS011;62576;55.694;37.494;2023-11-19T13:13:20;15.55;;;6.85;;
74213;SDS011;62576;55.694;37.494;2023-11-19T13:15:49;22.75;;;7.43;;
74213;SDS011;62576;55.694;37.494;2023-11-19T13:18:19;21.10;;;7.78;;
74213;SDS011;62576;55.694;37.494;2023-11-19T13:23:54;23.95;;;9.07;;
74213;SDS011;62576;55.694;37.494;2023-11-19T13:26:24;23.70;;;8.95;;
74213;SDS011;62576;55.694;37.494;2023-11-19T13:28:54;19.40;;;7.80;;
74213;SDS011;62576;55.694;37.494;2023-11-19T13:31:24;32.30;;;10.30;;
74213;SDS011;62576;55.694;37.494;2023-11-19T13:33:55;27.05;;;10.40;;
74213;SDS011;62576;55.694;37.494;2023-11-19T13:36:26;23.88;;;10.07;;
74213;SDS011;62576;55.694;37.494;2023-11-19T13:42:04;29.65;;;10.95;;
74213;SDS011;62576;55.694;37.494;2023-11-19T13:44:35;31.60;;;10.95;;
74213;SDS011;62576;55.694;37.494;2023-11-19T13:47:05;28.45;;;10.90;;
74213;SDS011;62576;55.694;37.494;2023-11-19T13:49:35;28.52;;;10.10;;
74213;SDS011;62576;55.694;37.494;2023-11-19T13:52:07;26.52;;;10.20;;
74213;SDS011;62576;55.694;37.494;2023-11-19T13:54:37;27.67;;;10.63;;
74213;SDS011;62576;55.694;37.494;2023-11-19T13:57:09;25.33;;;9.57;;
74213;SDS011;62576;55.694;37.494;2023-11-19T13:59:42;28.95;;;10.63;;
74213;SDS011;62576;55.694;37.494;2023-11-19T14:02:12;27.73;;;10.18;;
74213;SDS011;62576;55.694;37.494;2023-11-19T14:04:42;29.33;;;11.02;;
74213;SDS011;62576;55.694;37.494;2023-11-19T14:07:12;27.38;;;10.27;;
74213;SDS011;62576;55.694;37.494;2023-11-19T14:09:44;27.13;;;10.88;;
74213;SDS011;62576;55.694;37.494;2023-11-19T14:12:17;29.60;;;10.30;;
74213;SDS011;62576;55.694;37.494;2023-11-19T14:14:48;32.80;;;12.30;;
74213;SDS011;62576;55.694;37.494;2023-11-19T14:17:25;30.30;;;11.15;;
74213;SDS011;62576;55.694;37.494;2023-11-19T14:20:13;33.65;;;11.82;;
74213;SDS011;62576;55.694;37.494;2023-11-19T14:22:51;30.15;;;11.30;;
74213;SDS011;62576;55.694;37.494;2023-11-19T14:28:58;31.98;;;11.43;;
74213;SDS011;62576;55.694;37.494;2023-11-19T14:31:28;31.90;;;10.75;;
74213;SDS011;62576;55.694;37.494;2023-11-19T14:33:58;29.23;;;10.65;;
74213;SDS011;62576;55.694;37.494;2023-11-19T14:36:28;34.53;;;11.75;;
74213;SDS011;62576;55.694;37.494;2023-11-19T14:38:57;37.58;;;13.07;;
74213;SDS011;62576;55.694;37.494;2023-11-19T14:41:28;29.90;;;10.75;;
74213;SDS011;62576;55.694;37.494;2023-11-19T14:43:59;28.23;;;10.38;;
74213;SDS011;62576;55.694;37.494;2023-11-19T14:46:31;35.55;;;10.75;;
74213;SDS011;62576;55.694;37.494;2023-11-19T14:49:04;30.50;;;11.50;;
74213;SDS011;62576;55.694;37.494;2023-11-19T14:51:36;30.02;;;10.25;;
74213;SDS011;62576;55.694;37.494;2023-11-19T14:54:06;38.25;;;11.70;;
74213;SDS011;62576;55.694;37.494;2023-11-19T14:56:36;34.28;;;11.32;;
74213;SDS011;62576;55.694;37.494;2023-11-19T14:59:08;30.85;;;10.80;;
74213;SDS011;62576;55.694;37.494;2023-11-19T15:01:38;30.73;;;10.40;;
74213;SDS011;62576;55.694;37.494;2023-11-19T15:04:08;29.77;;;10.15;;
74213;SDS011;62576;55.694;37.494;2023-11-19T15:06:39;33.25;;;11.30;;
74213;SDS011;62576;55.694;37.494;2023-11-19T15:09:09;32.10;;;12.18;;
74213;SDS011;62576;55.694;37.494;2023-11-19T15:11:44;31.95;;;10.68;;
74213;SDS011;62576;55.694;37.494;2023-11-19T15:14:17;32.75;;;11.15;;
74213;SDS011;62576;55.694;37.494;2023-11-19T15:16:48;29.98;;;10.90;;
74213;SDS011;62576;55.694;37.494;2023-11-19T15:19:19;27.88;;;10.15;;
74213;SDS011;62576;55.694;37.494;2023-11-19T15:21:49;29.02;;;10.20;;
74213;SDS011;62576;55.694;37.494;2023-11-19T15:24:23;31.58;;;11.30;;
74213;SDS011;62576;55.694;37.494;2023-11-19T15:26:53;32.03;;;11.52;;
74213;SDS011;62576;55.694;37.494;2023-11-19T15:32:29;27.05;;;9.25;;
74213;SDS011;62576;55.694;37.494;2023-11-19T15:38:10;30.80;;;10.57;;
74213;SDS011;62576;55.694;37.494;2023-11-19T15:40:40;28.90;;;10.68;;
74213;SDS011;62576;55.694;37.494;2023-11-19T15:43:10;28.13;;;10.63;;
74213;SDS011;62576;55.694;37.494;2023-11-19T15:45:41;29.90;;;8.85;;
74213;SDS011;62576;55.694;37.494;2023-11-19T15:48:13;30.92;;;11.25;;